Latest Coastal Weather Observations for Evans Head

IDN60701

Issued at 4:11 am EDT Tuesday 17 January 2017 (issued every 10 minutes, with the page automatically refreshed every 10 minutes)

About coastal observations | Map of coastal stations | Coastal observations for NSW | Marine services | Other Formats
Station Details ID: 058212 Name: EVANS HEAD RAAF BOMBING RANGE AWS Lat: -29.18 Lon: 153.40 Height: 62.5 m
Data from the previous 72 hours. | See also: Recent months at Evans Head
Date/Time
EDT
Temp
°C
Wind Pressure Rain since
9am
mm
Weather Cloud Vis
km
Sea
Height
m
Swell
Dir  Spd
kts
Gust
kts
hPa Trend Height
m
Period
s
Dir
17/04:00am 21.7 CALM 0 0 1015.4 - 0.0 - - - - - - -
17/03:30am 21.5 CALM 0 0 1015.5 - 0.0 - - - - - - -
17/03:00am 21.7 CALM 0 0 1015.6 - 0.0 - - - - - - -
17/02:30am 22.0 CALM 0 0 1015.7 - 0.0 - - - - - - -
17/02:00am 21.8 CALM 0 0 1015.9 - 0.0 - - - - - - -
17/01:30am 21.8 CALM 0 1 1015.9 - 0.0 - - - - - - -
17/01:00am 22.0 CALM 0 0 1016.1 - 0.0 - - - - - - -
17/12:30am 22.4 N 4 4 1016.2 - 0.0 - - - - - - -
17/12:00am 22.4 N 3 4 1016.4 - 0.0 - - - - - - -
 
Date/Time
EDT
Temp
°C
Wind Pressure Rain since
9am
mm
Weather Cloud Vis
km
Sea
Height
m
Swell
Dir  Spd
kts
Gust
kts
hPa Trend Height
m
Period
s
Dir
16/11:30pm 22.5 N 3 4 1016.6 - 0.0 - - - - - - -
16/11:00pm 22.4 N 4 4 1016.6 - 0.0 - - - - - - -
16/10:30pm 22.7 CALM 0 0 1016.7 - 0.0 - - - - - - -
16/10:00pm 22.8 WNW 4 5 1016.8 - 0.0 - - - - - - -
16/09:30pm 22.9 CALM 0 3 1016.6 - 0.0 - - - - - - -
16/09:00pm 23.1 N 3 4 1016.5 - 0.0 - - - - - - -
16/08:30pm 23.0 NNE 5 6 1016.4 - 0.0 - - - - - - -
16/08:00pm 22.8 NNE 4 6 1016.1 - 0.0 - - - - - - -
16/07:30pm 22.7 ESE 4 5 1015.8 - 0.0 - - - - - - -
16/07:00pm 23.8 NW 3 5 1015.4 - 0.0 - - - - - - -
16/06:30pm 24.0 W 3 5 1015.1 - 0.0 - - - - - - -
16/06:00pm 24.3 SW 5 8 1014.8 - 0.0 - - - - - - -
16/05:30pm 24.9 WSW 7 10 1014.4 - 0.0 - - - - - - -
16/05:00pm 24.2 WSW 11 15 1014.0 - 0.0 - - - - - - -
16/04:30pm 23.9 WSW 10 15 1014.2 - 0.0 - - - - - - -
16/04:00pm 23.5 WSW 6 8 1014.6 - 0.0 - - - - - - -
16/03:30pm 23.6 W 6 9 1014.7 - 0.0 - - - - - - -
16/03:00pm 23.6 WSW 6 9 1014.9 - 0.0 - - - - - - -
16/02:30pm 24.4 W 7 11 1015.0 - 0.0 - - - - - - -
16/02:00pm 23.2 WSW 6 10 1015.2 - 0.0 - - - - - - -
16/01:30pm 23.4 W 4 7 1015.1 - 0.0 - - - - - - -
16/01:00pm 23.0 WSW 7 11 1015.2 - 0.0 - - - - - - -
16/12:30pm 24.0 W 7 11 1015.3 - 0.0 - - - - - - -
16/12:00pm 24.6 WNW 6 10 1015.4 - 0.0 - - - - - - -
16/11:30am 24.6 WNW 6 10 1015.4 - 0.0 - - - - - - -
16/11:00am 24.4 WNW 6 9 1015.4 - 0.0 - - - - - - -
16/10:30am 23.9 WNW 5 8 1015.5 - 0.0 - - - - - - -
16/10:00am 23.7 W 6 10 1015.4 - 0.0 - - - - - - -
16/09:30am 24.1 W 11 17 1015.1 - 0.0 - - - - - - -
16/09:00am 23.4 W 10 15 1014.9 - 1.0 - - - - - - -
16/08:30am 22.1 WNW 9 14 1014.8 - 1.0 - - - - - - -
16/08:00am 22.1 WNW 8 12 1014.7 - 1.0 - - - - - - -
16/07:30am 21.2 WNW 8 13 1014.2 - 1.0 - - - - - - -
16/07:00am 21.1 W 11 18 1013.7 - 1.0 - - - - - - -
16/06:30am 21.0 W 9 15 1013.5 - 1.0 - - - - - - -
16/06:00am 20.8 W 8 14 1013.2 - 1.0 - - - - - - -
16/05:30am 20.9 WNW 7 13 1012.9 - 1.0 - - - - - - -
16/05:00am 20.9 WNW 7 12 1012.6 - 1.0 - - - - - - -
16/04:30am 20.8 W 7 10 1012.3 - 1.0 - - - - - - -
16/04:00am 20.9 W 8 14 1012.1 - 1.0 - - - - - - -
16/03:30am 21.1 W 8 13 1012.4 - 1.0 - - - - - - -
16/03:00am 21.2 W 10 13 1012.5 - 1.0 - - - - - - -
16/02:30am 21.1 WNW 7 11 1012.8 - 1.0 - - - - - - -
16/02:00am 21.1 NW 6 10 1013.0 - 1.0 - - - - - - -
16/01:30am 21.0 SW 12 18 1012.9 - 1.0 - - - - - - -
16/01:00am 21.1 SW 12 17 1013.2 - 1.0 - - - - - - -
16/12:30am 21.1 SW 12 17 1013.8 - 1.0 - - - - - - -
16/12:00am 21.3 SW 13 20 1013.9 - 1.0 Recent precip. - - - - - -
 
Date/Time
EDT
Temp
°C
Wind Pressure Rain since
9am
mm
Weather Cloud Vis
km
Sea
Height
m
Swell
Dir  Spd
kts
Gust
kts
hPa Trend Height
m
Period
s
Dir
15/11:30pm 21.3 SW 14 22 1014.0 - 0.8 - - - - - - -
15/11:00pm 21.3 SW 13 19 1014.2 - 0.8 - - - - - - -
15/10:30pm 21.2 SW 13 19 1014.2 - 0.4 - - - - - - -
15/10:00pm 21.3 SSW 16 24 1013.7 - 0.4 - - - - - - -
15/09:30pm 21.6 SSW 15 21 1013.5 - 0.4 - - - - - - -
15/09:00pm 21.7 SSW 17 22 1013.3 - 0.4 - - - - - - -
15/08:30pm 21.7 SSW 17 24 1013.1 - 0.4 - - - - - - -
15/08:02pm 21.8 SSW 17 27 1012.6 - 0.4 - - - - - - -
15/08:00pm 21.8 SSW 18 27 1012.6 - 0.4 - - - - - - -
15/07:43pm 21.8 SSW 17 27 1012.5 - 0.4 - - - - - - -
15/07:30pm 21.8 SSW 20 27 1012.3 - 0.4 - - - - - - -
15/07:05pm 21.7 SSW 18 29 1011.9 - 0.4 - - - - - - -
15/07:00pm 21.7 SSW 19 27 1011.8 - 0.4 - - - - - - -
15/06:30pm 21.5 SSW 19 31 1011.3 - 0.4 - - - - - - -
15/06:00pm 21.5 SSW 19 32 1011.0 - 0.4 - - - - - - -
15/05:30pm 21.6 SSW 20 30 1010.9 - 0.4 - - - - - - -
15/05:00pm 21.4 SSW 23 34 1010.5 - 0.4 - - - - - - -
15/04:30pm 21.7 SSW 21 31 1010.5 - 0.4 - - - - - - -
15/04:00pm 22.2 SSW 19 29 1010.5 - 0.2 - - - - - - -
15/03:30pm 22.7 SSW 17 27 1010.6 - 0.2 - - - - - - -
15/03:25pm 22.7 SSW 17 27 1010.6 - 0.2 - - - - - - -
15/03:00pm 22.7 SSW 19 27 1010.5 - 0.2 Recent precip. - - - - - -
15/02:30pm 23.2 SSW 17 24 1010.6 - 0.2 - - - - - - -
15/02:00pm 24.5 SSW 18 29 1010.4 - 0.0 - - - - - - -
15/01:59pm 24.4 SSW 18 29 1010.4 - 0.0 - - - - - - -
15/01:30pm 25.1 SSW 14 19 1010.5 - 0.0 - - - - - - -
15/01:00pm 25.3 SSW 15 21 1010.2 - 0.0 - - - - - - -
15/12:30pm 25.9 S 14 19 1010.1 - 0.0 - - - - - - -
15/12:00pm 29.7 S 12 16 1009.9 - 0.0 - - - - - - -
15/11:30am 25.4 S 10 13 1009.9 - 0.0 - - - - - - -
15/11:00am 24.7 S 10 15 1009.9 - 0.0 - - - - - - -
15/10:30am 25.5 SSW 11 15 1009.8 - 0.0 - - - - - - -
15/10:00am 24.8 S 8 11 1009.6 - 0.0 - - - - - - -
15/09:30am 25.1 SSW 6 8 1009.0 - 0.0 - - - - - - -
15/09:00am 25.5 WNW 1 6 1008.7 - 0.2 - - - - - - -
15/08:30am 25.2 NW 2 4 1008.8 - 0.2 - - - - - - -
15/08:00am 24.9 ENE 3 6 1008.9 - 0.2 - - - - - - -
15/07:30am 24.2 WNW 4 6 1008.6 - 0.2 - - - - - - -
15/07:00am 24.8 W 6 9 1008.0 - 0.0 - - - - - - -
15/06:30am 24.7 WNW 3 6 1008.3 - 0.0 - - - - - - -
15/06:00am 24.6 NNW 5 8 1007.9 - 0.0 - - - - - - -
15/05:30am 24.7 WNW 5 8 1007.6 - 0.0 - - - - - - -
15/05:00am 24.5 N 5 8 1007.5 - 0.0 - - - - - - -
15/04:30am 24.6 N 5 7 1006.8 - 0.0 - - - - - - -
15/04:00am 24.6 NNW 5 6 1006.4 - 0.0 - - - - - - -
15/03:30am 24.4 NW 2 5 1005.8 - 0.0 - - - - - - -
15/03:00am 24.2 N 5 9 1005.6 - 0.0 - - - - - - -
15/02:30am 24.2 N 5 9 1005.8 - 0.0 - - - - - - -
15/02:00am 24.4 ENE 5 7 1006.6 - 0.0 - - - - - - -
15/01:30am 24.9 SSE 6 9 1006.4 - 0.0 - - - - - - -
15/01:00am 25.9 W 5 9 1006.3 - 0.0 - - - - - - -
15/12:30am 25.6 NW 4 7 1006.3 - 0.0 - - - - - - -
15/12:00am 25.7 NW 2 4 1005.7 - 0.0 - - - - - - -
 
Date/Time
EDT
Temp
°C
Wind Pressure Rain since
9am
mm
Weather Cloud Vis
km
Sea
Height
m
Swell
Dir  Spd
kts
Gust
kts
hPa Trend Height
m
Period
s
Dir
14/11:30pm 25.5 NNW 4 6 1005.7 - 0.0 - - - - - - -
14/11:00pm 25.6 NW 3 5 1005.4 - 0.0 - - - - - - -
14/10:30pm 25.8 W 5 8 1005.7 - 0.0 - - - - - - -
14/10:00pm 25.6 W 6 8 1005.5 - 0.0 - - - - - - -
14/09:30pm 24.4 SW 7 10 1005.4 - 0.0 - - - - - - -
14/09:00pm 24.4 SSW 10 13 1005.1 - 0.0 - - - - - - -
14/08:30pm 23.5 SSW 11 18 1004.8 - 0.0 - - - - - - -
14/08:14pm 24.1 SW 15 25 1004.5 - 0.0 - - - - - - -
14/08:00pm 27.7 SW 10 17 1004.2 - 0.0 - - - - - - -
14/07:30pm 27.5 N 11 16 1002.5 - 0.0 - - - - - - -
14/07:00pm 28.3 N 12 18 1002.3 - 0.0 - - - - - - -
14/06:30pm 29.3 N 11 17 1002.1 - 0.0 - - - - - - -
14/06:00pm 30.3 NNE 12 20 1001.7 - 0.0 - - - - - - -
14/05:30pm 31.0 NNE 17 24 1001.5 - 0.0 - - - - - - -
14/05:09pm 32.2 NNE 16 26 1001.4 - 0.0 - - - - - - -
14/05:00pm 32.6 NNE 15 24 1001.4 - 0.0 - - - - - - -
14/04:30pm 33.7 NNE 16 23 1001.9 - 0.0 - - - - - - -
14/04:00pm 35.8 NNE 12 18 1002.2 - 0.0 - - - - - - -
14/03:30pm 37.0 NNE 11 16 1002.8 - 0.0 - - - - - - -
14/03:00pm 37.4 NNE 9 15 1003.4 - 0.0 - - - - - - -
14/02:30pm 38.4 NNE 7 13 1003.9 - 0.0 - - - - - - -
14/02:00pm 40.5 N 10 17 1004.1 - 0.0 - - - - - - -
14/01:30pm 40.0 N 11 17 1004.5 - 0.0 - - - - - - -
14/01:00pm 39.2 NNW 10 15 1004.7 - 0.0 - - - - - - -
14/12:30pm 38.5 NNW 10 18 1005.3 - 0.0 - - - - - - -
14/12:00pm 37.3 NNW 10 17 1005.5 - 0.0 - - - - - - -
14/11:30am 36.9 NNW 9 17 1005.6 - 0.0 - - - - - - -
14/11:00am 35.0 NW 9 16 1006.0 - 0.0 - - - - - - -
14/10:30am 34.5 NNW 8 13 1006.2 - 0.0 - - - - - - -
14/10:00am 32.8 NW 10 15 1006.4 - 0.0 - - - - - - -
14/09:30am 31.8 NNW 8 13 1006.3 - 0.0 - - - - - - -
14/09:00am 30.6 N 7 13 1006.4 - 0.0 - - - - - - -
14/08:30am 29.4 N 7 11 1006.6 - 0.0 - - - - - - -
14/08:00am 27.6 N 7 10 1006.4 - 0.0 - - - - - - -
14/07:30am 25.8 N 7 11 1006.2 - 0.0 - - - - - - -
14/07:00am 23.9 NNE 6 8 1006.0 - 0.0 - - - - - - -
14/06:30am 22.9 N 6 7 1006.1 - 0.0 - - - - - - -
14/06:00am 22.6 N 3 8 1005.9 - 0.0 - - - - - - -
14/05:30am 23.0 NNE 6 9 1005.7 - 0.0 - - - - - - -
14/05:00am 23.1 NNE 6 8 1005.3 - 0.0 - - - - - - -
14/04:30am 23.5 N 7 11 1005.2 - 0.0 - - - - - - -

Other Formats:

Comma delimited format used in spreadsheet applications
http://www.bom.gov.au/fwo/IDN60701/IDN60701.94598.axf

JavaScript Object Notation format (JSON) in row-major order
http://www.bom.gov.au/fwo/IDN60701/IDN60701.94598.json